Quezon City, Philippines
Current Conditions -  °F | °C
As of 12:00 PM on Thursday 29 Jan 2015 (Local Time) from RPLL Reporting Station
Broken Clouds Broken Clouds  
Wind Chill: 84°   Ceiling: 10000
Heat Index: 90°   Visibility: 6mi
Dew Point: 72°   Wind: 7mph
Humidity: 66%   Direction: 140°SE
Pressure: 29.91"   Gusts: NA
Location:  14.66°N, 121.07°E
Report Text: RPLL 290400Z 14006KT 050V220 9999 SCT023 BKN100 29/22 Q1013 NOSIG RMK A2991
Loading
Personal Weather Stations






























Interactive Weather Map New forecast layout! Learn more

10-Day Weather Forecast

Advertisements
Track Severe Weather on mobile